sensor_id;sensor_type;location;lat;lon;timestamp;P1;durP1;ratioP1;P2;durP2;ratioP2
41623;SDS011;27319;50.306;18.926;2023-09-19T00:01:33;12.25;;;8.75;;
41623;SDS011;27319;50.306;18.926;2023-09-19T00:04:35;11.95;;;8.88;;
41623;SDS011;27319;50.306;18.926;2023-09-19T00:08:35;14.25;;;9.27;;
41623;SDS011;27319;50.306;18.926;2023-09-19T00:12:36;11.95;;;9.13;;
41623;SDS011;27319;50.306;18.926;2023-09-19T00:15:38;9.75;;;8.43;;
41623;SDS011;27319;50.306;18.926;2023-09-19T00:18:41;11.05;;;8.45;;
41623;SDS011;27319;50.306;18.926;2023-09-19T00:21:42;12.38;;;8.93;;
41623;SDS011;27319;50.306;18.926;2023-09-19T00:24:44;13.63;;;9.23;;
41623;SDS011;27319;50.306;18.926;2023-09-19T00:27:44;13.75;;;9.05;;
41623;SDS011;27319;50.306;18.926;2023-09-19T00:30:47;11.63;;;9.50;;
41623;SDS011;27319;50.306;18.926;2023-09-19T00:33:51;10.18;;;8.50;;
41623;SDS011;27319;50.306;18.926;2023-09-19T00:36:54;10.60;;;8.55;;
41623;SDS011;27319;50.306;18.926;2023-09-19T00:39:54;12.45;;;9.07;;
41623;SDS011;27319;50.306;18.926;2023-09-19T00:42:59;10.02;;;8.82;;
41623;SDS011;27319;50.306;18.926;2023-09-19T00:46:00;12.27;;;9.02;;
41623;SDS011;27319;50.306;18.926;2023-09-19T00:49:03;11.43;;;9.20;;
41623;SDS011;27319;50.306;18.926;2023-09-19T00:52:04;15.52;;;9.63;;
41623;SDS011;27319;50.306;18.926;2023-09-19T00:55:06;12.02;;;9.20;;
41623;SDS011;27319;50.306;18.926;2023-09-19T00:58:11;9.82;;;8.40;;
41623;SDS011;27319;50.306;18.926;2023-09-19T01:01:13;11.35;;;9.07;;
41623;SDS011;27319;50.306;18.926;2023-09-19T01:04:14;13.02;;;9.55;;
41623;SDS011;27319;50.306;18.926;2023-09-19T01:07:18;12.93;;;9.15;;
41623;SDS011;27319;50.306;18.926;2023-09-19T01:10:19;10.82;;;8.57;;
41623;SDS011;27319;50.306;18.926;2023-09-19T01:13:28;15.18;;;9.75;;
41623;SDS011;27319;50.306;18.926;2023-09-19T01:16:36;11.70;;;9.05;;
41623;SDS011;27319;50.306;18.926;2023-09-19T01:30:26;11.07;;;9.00;;
41623;SDS011;27319;50.306;18.926;2023-09-19T01:37:08;12.90;;;8.35;;
41623;SDS011;27319;50.306;18.926;2023-09-19T01:40:10;11.13;;;8.88;;
41623;SDS011;27319;50.306;18.926;2023-09-19T01:43:38;12.75;;;8.45;;
41623;SDS011;27319;50.306;18.926;2023-09-19T01:47:26;11.43;;;8.50;;
41623;SDS011;27319;50.306;18.926;2023-09-19T01:50:42;10.70;;;8.82;;
41623;SDS011;27319;50.306;18.926;2023-09-19T01:57:26;13.05;;;8.70;;
41623;SDS011;27319;50.306;18.926;2023-09-19T02:00:30;12.27;;;8.70;;
41623;SDS011;27319;50.306;18.926;2023-09-19T02:03:34;10.90;;;9.25;;
41623;SDS011;27319;50.306;18.926;2023-09-19T02:06:40;14.07;;;9.55;;
41623;SDS011;27319;50.306;18.926;2023-09-19T02:09:41;12.30;;;8.63;;
41623;SDS011;27319;50.306;18.926;2023-09-19T02:12:43;10.90;;;8.90;;
41623;SDS011;27319;50.306;18.926;2023-09-19T02:15:44;11.90;;;8.82;;
41623;SDS011;27319;50.306;18.926;2023-09-19T02:18:45;12.15;;;8.95;;
41623;SDS011;27319;50.306;18.926;2023-09-19T02:21:46;10.63;;;8.98;;
41623;SDS011;27319;50.306;18.926;2023-09-19T02:24:49;11.18;;;9.15;;
41623;SDS011;27319;50.306;18.926;2023-09-19T02:27:51;12.20;;;9.07;;
41623;SDS011;27319;50.306;18.926;2023-09-19T02:30:54;12.88;;;9.35;;
41623;SDS011;27319;50.306;18.926;2023-09-19T02:33:56;11.00;;;8.68;;
41623;SDS011;27319;50.306;18.926;2023-09-19T02:36:57;12.57;;;9.30;;
41623;SDS011;27319;50.306;18.926;2023-09-19T02:39:58;11.10;;;8.60;;
41623;SDS011;27319;50.306;18.926;2023-09-19T02:42:59;12.98;;;9.85;;
41623;SDS011;27319;50.306;18.926;2023-09-19T02:46:00;12.02;;;8.88;;
41623;SDS011;27319;50.306;18.926;2023-09-19T02:49:03;10.80;;;8.90;;
41623;SDS011;27319;50.306;18.926;2023-09-19T02:52:07;12.93;;;9.10;;
41623;SDS011;27319;50.306;18.926;2023-09-19T02:55:08;16.17;;;9.68;;
41623;SDS011;27319;50.306;18.926;2023-09-19T02:58:53;11.32;;;8.73;;
41623;SDS011;27319;50.306;18.926;2023-09-19T03:01:55;14.10;;;8.82;;
41623;SDS011;27319;50.306;18.926;2023-09-19T03:04:56;12.93;;;9.43;;
41623;SDS011;27319;50.306;18.926;2023-09-19T03:08:57;11.90;;;8.93;;
41623;SDS011;27319;50.306;18.926;2023-09-19T03:12:00;12.15;;;8.32;;
41623;SDS011;27319;50.306;18.926;2023-09-19T03:15:02;11.55;;;8.38;;
41623;SDS011;27319;50.306;18.926;2023-09-19T03:18:04;13.60;;;9.55;;
41623;SDS011;27319;50.306;18.926;2023-09-19T03:21:41;11.52;;;9.05;;
41623;SDS011;27319;50.306;18.926;2023-09-19T03:25:30;12.40;;;8.63;;
41623;SDS011;27319;50.306;18.926;2023-09-19T03:29:31;10.10;;;8.80;;
41623;SDS011;27319;50.306;18.926;2023-09-19T03:32:31;11.10;;;9.48;;
41623;SDS011;27319;50.306;18.926;2023-09-19T03:35:51;13.77;;;10.27;;
41623;SDS011;27319;50.306;18.926;2023-09-19T03:39:24;12.00;;;10.13;;
41623;SDS011;27319;50.306;18.926;2023-09-19T03:42:26;19.38;;;11.93;;
41623;SDS011;27319;50.306;18.926;2023-09-19T03:45:27;18.98;;;12.45;;
41623;SDS011;27319;50.306;18.926;2023-09-19T03:49:27;21.60;;;12.68;;
41623;SDS011;27319;50.306;18.926;2023-09-19T03:52:29;19.60;;;13.65;;
41623;SDS011;27319;50.306;18.926;2023-09-19T03:55:30;21.23;;;13.88;;
41623;SDS011;27319;50.306;18.926;2023-09-19T03:59:30;18.67;;;13.10;;
41623;SDS011;27319;50.306;18.926;2023-09-19T04:02:31;19.50;;;13.48;;
41623;SDS011;27319;50.306;18.926;2023-09-19T04:05:33;18.50;;;13.88;;
41623;SDS011;27319;50.306;18.926;2023-09-19T04:08:34;20.85;;;14.18;;
41623;SDS011;27319;50.306;18.926;2023-09-19T04:11:35;18.08;;;13.10;;
41623;SDS011;27319;50.306;18.926;2023-09-19T04:14:36;16.23;;;12.90;;
41623;SDS011;27319;50.306;18.926;2023-09-19T04:17:37;17.38;;;13.50;;
41623;SDS011;27319;50.306;18.926;2023-09-19T04:20:38;18.45;;;12.30;;
41623;SDS011;27319;50.306;18.926;2023-09-19T04:24:39;16.83;;;12.55;;
41623;SDS011;27319;50.306;18.926;2023-09-19T04:28:39;17.88;;;12.27;;
41623;SDS011;27319;50.306;18.926;2023-09-19T04:32:40;18.00;;;12.15;;
41623;SDS011;27319;50.306;18.926;2023-09-19T04:35:41;16.88;;;13.00;;
41623;SDS011;27319;50.306;18.926;2023-09-19T04:39:42;14.55;;;11.82;;
41623;SDS011;27319;50.306;18.926;2023-09-19T04:42:43;16.38;;;13.40;;
41623;SDS011;27319;50.306;18.926;2023-09-19T04:45:44;17.65;;;13.40;;
41623;SDS011;27319;50.306;18.926;2023-09-19T04:49:45;17.15;;;14.02;;
41623;SDS011;27319;50.306;18.926;2023-09-19T04:52:49;17.67;;;13.30;;
41623;SDS011;27319;50.306;18.926;2023-09-19T04:55:51;15.88;;;13.23;;
41623;SDS011;27319;50.306;18.926;2023-09-19T04:58:55;19.02;;;12.85;;
41623;SDS011;27319;50.306;18.926;2023-09-19T05:01:58;17.23;;;13.48;;
41623;SDS011;27319;50.306;18.926;2023-09-19T05:04:59;21.15;;;13.48;;
41623;SDS011;27319;50.306;18.926;2023-09-19T05:09:00;25.42;;;13.75;;
41623;SDS011;27319;50.306;18.926;2023-09-19T05:12:01;18.15;;;13.50;;
41623;SDS011;27319;50.306;18.926;2023-09-19T05:16:02;19.60;;;14.40;;
41623;SDS011;27319;50.306;18.926;2023-09-19T05:19:03;19.23;;;14.10;;
41623;SDS011;27319;50.306;18.926;2023-09-19T05:22:04;19.20;;;14.13;;
41623;SDS011;27319;50.306;18.926;2023-09-19T05:25:07;21.23;;;14.25;;
41623;SDS011;27319;50.306;18.926;2023-09-19T05:28:17;18.80;;;13.57;;
41623;SDS011;27319;50.306;18.926;2023-09-19T05:31:45;23.00;;;15.20;;
41623;SDS011;27319;50.306;18.926;2023-09-19T05:34:47;21.27;;;14.82;;
41623;SDS011;27319;50.306;18.926;2023-09-19T05:37:48;21.00;;;14.20;;
41623;SDS011;27319;50.306;18.926;2023-09-19T05:41:48;22.33;;;14.55;;
41623;SDS011;27319;50.306;18.926;2023-09-19T05:45:49;20.90;;;13.88;;
41623;SDS011;27319;50.306;18.926;2023-09-19T05:48:52;20.60;;;13.82;;
41623;SDS011;27319;50.306;18.926;2023-09-19T05:51:53;23.25;;;15.07;;
41623;SDS011;27319;50.306;18.926;2023-09-19T05:55:54;18.75;;;14.15;;
41623;SDS011;27319;50.306;18.926;2023-09-19T05:59:34;19.77;;;13.20;;
41623;SDS011;27319;50.306;18.926;2023-09-19T06:03:35;22.02;;;13.40;;
41623;SDS011;27319;50.306;18.926;2023-09-19T06:06:36;19.38;;;12.77;;
41623;SDS011;27319;50.306;18.926;2023-09-19T06:09:40;18.17;;;11.77;;
41623;SDS011;27319;50.306;18.926;2023-09-19T06:13:41;18.80;;;11.05;;
41623;SDS011;27319;50.306;18.926;2023-09-19T06:17:42;20.40;;;12.55;;
41623;SDS011;27319;50.306;18.926;2023-09-19T06:21:42;23.35;;;13.63;;
41623;SDS011;27319;50.306;18.926;2023-09-19T06:25:43;25.80;;;13.65;;
41623;SDS011;27319;50.306;18.926;2023-09-19T06:29:43;15.80;;;11.45;;
41623;SDS011;27319;50.306;18.926;2023-09-19T06:33:44;17.55;;;12.02;;
41623;SDS011;27319;50.306;18.926;2023-09-19T06:36:45;18.10;;;11.30;;
41623;SDS011;27319;50.306;18.926;2023-09-19T06:39:46;16.55;;;11.10;;
41623;SDS011;27319;50.306;18.926;2023-09-19T06:42:50;15.70;;;10.18;;
41623;SDS011;27319;50.306;18.926;2023-09-19T06:45:53;22.92;;;10.43;;
41623;SDS011;27319;50.306;18.926;2023-09-19T06:48:55;21.17;;;11.38;;
41623;SDS011;27319;50.306;18.926;2023-09-19T06:51:56;21.98;;;10.68;;
41623;SDS011;27319;50.306;18.926;2023-09-19T06:54:58;14.98;;;9.93;;
41623;SDS011;27319;50.306;18.926;2023-09-19T06:57:58;20.30;;;11.52;;
41623;SDS011;27319;50.306;18.926;2023-09-19T07:00:59;18.88;;;9.70;;
41623;SDS011;27319;50.306;18.926;2023-09-19T07:04:28;17.52;;;9.57;;
41623;SDS011;27319;50.306;18.926;2023-09-19T07:08:29;15.82;;;8.88;;
41623;SDS011;27319;50.306;18.926;2023-09-19T07:12:29;13.73;;;7.70;;
41623;SDS011;27319;50.306;18.926;2023-09-19T07:16:18;14.52;;;6.50;;
41623;SDS011;27319;50.306;18.926;2023-09-19T07:20:23;10.05;;;5.35;;
41623;SDS011;27319;50.306;18.926;2023-09-19T07:24:23;9.52;;;4.90;;
41623;SDS011;27319;50.306;18.926;2023-09-19T07:28:23;7.07;;;4.65;;
41623;SDS011;27319;50.306;18.926;2023-09-19T07:32:24;10.60;;;4.70;;
41623;SDS011;27319;50.306;18.926;2023-09-19T07:35:25;20.05;;;6.18;;
41623;SDS011;27319;50.306;18.926;2023-09-19T07:39:26;12.20;;;4.72;;
41623;SDS011;27319;50.306;18.926;2023-09-19T07:43:29;9.48;;;4.78;;
41623;SDS011;27319;50.306;18.926;2023-09-19T07:47:33;10.70;;;4.65;;
41623;SDS011;27319;50.306;18.926;2023-09-19T07:51:36;5.72;;;3.55;;
41623;SDS011;27319;50.306;18.926;2023-09-19T07:55:36;7.63;;;3.03;;
41623;SDS011;27319;50.306;18.926;2023-09-19T07:59:46;6.15;;;3.22;;
41623;SDS011;27319;50.306;18.926;2023-09-19T08:02:46;4.78;;;3.20;;
41623;SDS011;27319;50.306;18.926;2023-09-19T08:05:48;6.25;;;3.40;;
41623;SDS011;27319;50.306;18.926;2023-09-19T08:08:52;7.75;;;3.05;;
41623;SDS011;27319;50.306;18.926;2023-09-19T08:11:57;6.15;;;3.10;;
41623;SDS011;27319;50.306;18.926;2023-09-19T08:14:58;5.72;;;2.80;;
41623;SDS011;27319;50.306;18.926;2023-09-19T08:18:27;8.02;;;2.90;;
41623;SDS011;27319;50.306;18.926;2023-09-19T08:21:30;9.50;;;3.55;;
41623;SDS011;27319;50.306;18.926;2023-09-19T08:24:32;4.82;;;3.15;;
41623;SDS011;27319;50.306;18.926;2023-09-19T08:27:35;6.78;;;4.25;;
41623;SDS011;27319;50.306;18.926;2023-09-19T08:31:35;4.18;;;3.05;;
41623;SDS011;27319;50.306;18.926;2023-09-19T08:34:43;6.80;;;3.63;;
41623;SDS011;27319;50.306;18.926;2023-09-19T08:37:44;8.32;;;2.72;;
41623;SDS011;27319;50.306;18.926;2023-09-19T08:40:46;9.13;;;3.30;;
41623;SDS011;27319;50.306;18.926;2023-09-19T08:43:47;6.53;;;3.60;;
41623;SDS011;27319;50.306;18.926;2023-09-19T08:46:47;8.10;;;3.33;;
41623;SDS011;27319;50.306;18.926;2023-09-19T08:53:51;6.85;;;4.30;;
41623;SDS011;27319;50.306;18.926;2023-09-19T08:57:02;10.85;;;4.40;;
41623;SDS011;27319;50.306;18.926;2023-09-19T09:00:08;9.90;;;5.00;;
41623;SDS011;27319;50.306;18.926;2023-09-19T09:03:15;9.05;;;5.50;;
41623;SDS011;27319;50.306;18.926;2023-09-19T09:06:20;10.00;;;4.97;;
41623;SDS011;27319;50.306;18.926;2023-09-19T09:09:21;9.30;;;4.53;;
41623;SDS011;27319;50.306;18.926;2023-09-19T09:12:22;7.28;;;4.55;;
41623;SDS011;27319;50.306;18.926;2023-09-19T09:16:23;9.25;;;4.78;;
41623;SDS011;27319;50.306;18.926;2023-09-19T09:20:24;8.90;;;4.55;;
41623;SDS011;27319;50.306;18.926;2023-09-19T09:28:01;10.30;;;4.78;;
41623;SDS011;27319;50.306;18.926;2023-09-19T09:31:02;6.05;;;4.38;;
41623;SDS011;27319;50.306;18.926;2023-09-19T09:34:08;9.82;;;4.50;;
41623;SDS011;27319;50.306;18.926;2023-09-19T09:37:13;8.63;;;4.80;;
41623;SDS011;27319;50.306;18.926;2023-09-19T09:40:17;5.43;;;4.43;;
41623;SDS011;27319;50.306;18.926;2023-09-19T09:44:12;6.07;;;3.65;;
41623;SDS011;27319;50.306;18.926;2023-09-19T09:47:16;8.20;;;4.78;;
41623;SDS011;27319;50.306;18.926;2023-09-19T09:51:09;9.13;;;4.10;;
41623;SDS011;27319;50.306;18.926;2023-09-19T09:54:14;7.75;;;4.22;;
41623;SDS011;27319;50.306;18.926;2023-09-19T09:57:16;10.20;;;3.88;;
41623;SDS011;27319;50.306;18.926;2023-09-19T10:01:06;7.65;;;3.88;;
41623;SDS011;27319;50.306;18.926;2023-09-19T10:04:09;6.80;;;4.10;;
41623;SDS011;27319;50.306;18.926;2023-09-19T10:07:10;11.15;;;5.47;;
41623;SDS011;27319;50.306;18.926;2023-09-19T10:10:35;9.27;;;4.38;;
41623;SDS011;27319;50.306;18.926;2023-09-19T10:13:42;8.48;;;4.30;;
41623;SDS011;27319;50.306;18.926;2023-09-19T10:17:43;11.15;;;4.28;;
41623;SDS011;27319;50.306;18.926;2023-09-19T10:21:46;7.20;;;4.25;;
41623;SDS011;27319;50.306;18.926;2023-09-19T10:25:47;7.45;;;4.93;;
41623;SDS011;27319;50.306;18.926;2023-09-19T10:28:49;11.13;;;4.10;;
41623;SDS011;27319;50.306;18.926;2023-09-19T10:31:51;10.57;;;4.43;;
41623;SDS011;27319;50.306;18.926;2023-09-19T10:35:10;7.22;;;4.70;;
41623;SDS011;27319;50.306;18.926;2023-09-19T10:38:14;6.53;;;4.97;;
41623;SDS011;27319;50.306;18.926;2023-09-19T10:41:19;5.95;;;3.95;;
41623;SDS011;27319;50.306;18.926;2023-09-19T10:44:23;6.80;;;2.97;;
41623;SDS011;27319;50.306;18.926;2023-09-19T10:47:26;3.00;;;2.47;;
41623;SDS011;27319;50.306;18.926;2023-09-19T10:51:26;3.28;;;2.38;;
41623;SDS011;27319;50.306;18.926;2023-09-19T10:55:27;6.80;;;2.55;;
41623;SDS011;27319;50.306;18.926;2023-09-19T10:58:36;7.03;;;2.55;;
41623;SDS011;27319;50.306;18.926;2023-09-19T11:01:41;3.40;;;2.33;;
41623;SDS011;27319;50.306;18.926;2023-09-19T11:04:42;4.80;;;2.33;;
41623;SDS011;27319;50.306;18.926;2023-09-19T11:07:58;4.70;;;2.80;;
41623;SDS011;27319;50.306;18.926;2023-09-19T11:11:04;6.70;;;2.83;;
41623;SDS011;27319;50.306;18.926;2023-09-19T11:14:40;8.98;;;2.97;;
41623;SDS011;27319;50.306;18.926;2023-09-19T11:21:42;9.80;;;3.58;;
41623;SDS011;27319;50.306;18.926;2023-09-19T11:24:52;10.73;;;5.05;;
41623;SDS011;27319;50.306;18.926;2023-09-19T11:35:21;6.53;;;4.13;;
41623;SDS011;27319;50.306;18.926;2023-09-19T11:39:30;6.95;;;4.25;;
41623;SDS011;27319;50.306;18.926;2023-09-19T11:43:50;11.70;;;6.10;;
41623;SDS011;27319;50.306;18.926;2023-09-19T11:47:27;9.43;;;5.70;;
41623;SDS011;27319;50.306;18.926;2023-09-19T11:51:28;7.63;;;5.22;;
41623;SDS011;27319;50.306;18.926;2023-09-19T11:55:28;13.32;;;5.50;;
41623;SDS011;27319;50.306;18.926;2023-09-19T11:59:29;12.98;;;5.80;;
41623;SDS011;27319;50.306;18.926;2023-09-19T12:03:30;7.32;;;5.32;;
41623;SDS011;27319;50.306;18.926;2023-09-19T12:06:32;8.18;;;5.07;;
41623;SDS011;27319;50.306;18.926;2023-09-19T12:10:48;8.13;;;4.85;;
41623;SDS011;27319;50.306;18.926;2023-09-19T12:14:49;10.65;;;4.85;;
41623;SDS011;27319;50.306;18.926;2023-09-19T12:17:53;10.80;;;5.03;;
41623;SDS011;27319;50.306;18.926;2023-09-19T12:22:06;7.88;;;4.53;;
41623;SDS011;27319;50.306;18.926;2023-09-19T12:26:07;8.07;;;5.47;;
41623;SDS011;27319;50.306;18.926;2023-09-19T12:30:07;10.85;;;5.13;;
41623;SDS011;27319;50.306;18.926;2023-09-19T12:34:08;12.02;;;4.90;;
41623;SDS011;27319;50.306;18.926;2023-09-19T12:37:10;8.15;;;4.63;;
41623;SDS011;27319;50.306;18.926;2023-09-19T12:40:22;7.05;;;4.75;;
41623;SDS011;27319;50.306;18.926;2023-09-19T12:43:28;10.20;;;5.10;;
41623;SDS011;27319;50.306;18.926;2023-09-19T12:46:33;7.07;;;4.82;;
41623;SDS011;27319;50.306;18.926;2023-09-19T12:49:33;7.97;;;4.38;;
41623;SDS011;27319;50.306;18.926;2023-09-19T12:52:39;6.05;;;4.80;;
41623;SDS011;27319;50.306;18.926;2023-09-19T12:56:42;5.25;;;3.97;;
41623;SDS011;27319;50.306;18.926;2023-09-19T13:00:43;6.63;;;3.30;;
41623;SDS011;27319;50.306;18.926;2023-09-19T13:04:45;3.50;;;3.15;;
41623;SDS011;27319;50.306;18.926;2023-09-19T13:08:43;6.85;;;3.08;;
41623;SDS011;27319;50.306;18.926;2023-09-19T13:12:50;6.25;;;3.72;;
41623;SDS011;27319;50.306;18.926;2023-09-19T13:17:06;5.40;;;3.45;;
41623;SDS011;27319;50.306;18.926;2023-09-19T13:21:07;4.63;;;3.22;;
41623;SDS011;27319;50.306;18.926;2023-09-19T13:25:16;6.60;;;3.00;;
41623;SDS011;27319;50.306;18.926;2023-09-19T13:28:59;4.15;;;3.13;;
41623;SDS011;27319;50.306;18.926;2023-09-19T13:33:09;5.13;;;2.88;;
41623;SDS011;27319;50.306;18.926;2023-09-19T13:36:20;5.47;;;3.65;;
41623;SDS011;27319;50.306;18.926;2023-09-19T13:39:20;7.10;;;3.55;;
41623;SDS011;27319;50.306;18.926;2023-09-19T13:43:21;3.17;;;2.35;;
41623;SDS011;27319;50.306;18.926;2023-09-19T13:47:22;6.30;;;5.45;;
41623;SDS011;27319;50.306;18.926;2023-09-19T13:51:23;5.22;;;2.33;;
41623;SDS011;27319;50.306;18.926;2023-09-19T13:55:23;6.38;;;2.55;;
41623;SDS011;27319;50.306;18.926;2023-09-19T13:59:24;7.35;;;2.83;;
41623;SDS011;27319;50.306;18.926;2023-09-19T14:03:24;3.50;;;2.25;;
41623;SDS011;27319;50.306;18.926;2023-09-19T14:06:28;5.90;;;2.15;;
41623;SDS011;27319;50.306;18.926;2023-09-19T14:09:29;5.50;;;3.05;;
41623;SDS011;27319;50.306;18.926;2023-09-19T14:12:30;8.50;;;3.25;;
41623;SDS011;27319;50.306;18.926;2023-09-19T14:15:32;4.20;;;3.47;;
41623;SDS011;27319;50.306;18.926;2023-09-19T14:19:33;7.70;;;3.42;;
41623;SDS011;27319;50.306;18.926;2023-09-19T14:23:37;8.75;;;3.50;;
41623;SDS011;27319;50.306;18.926;2023-09-19T14:27:34;5.43;;;3.00;;
41623;SDS011;27319;50.306;18.926;2023-09-19T14:31:38;6.13;;;3.20;;
41623;SDS011;27319;50.306;18.926;2023-09-19T14:34:40;9.93;;;3.08;;
41623;SDS011;27319;50.306;18.926;2023-09-19T14:37:43;3.72;;;2.58;;
41623;SDS011;27319;50.306;18.926;2023-09-19T14:40:45;5.88;;;3.20;;
41623;SDS011;27319;50.306;18.926;2023-09-19T14:44:05;5.05;;;2.47;;
41623;SDS011;27319;50.306;18.926;2023-09-19T14:48:06;4.35;;;2.00;;
41623;SDS011;27319;50.306;18.926;2023-09-19T14:51:07;3.55;;;2.38;;
41623;SDS011;27319;50.306;18.926;2023-09-19T14:55:08;6.70;;;2.45;;
41623;SDS011;27319;50.306;18.926;2023-09-19T14:59:09;4.90;;;2.05;;
41623;SDS011;27319;50.306;18.926;2023-09-19T15:03:10;3.35;;;1.77;;
41623;SDS011;27319;50.306;18.926;2023-09-19T15:06:12;1.90;;;1.50;;
41623;SDS011;27319;50.306;18.926;2023-09-19T15:09:55;2.85;;;1.60;;
41623;SDS011;27319;50.306;18.926;2023-09-19T15:12:56;4.55;;;2.05;;
41623;SDS011;27319;50.306;18.926;2023-09-19T15:16:00;5.07;;;2.25;;
41623;SDS011;27319;50.306;18.926;2023-09-19T15:20:01;3.15;;;1.52;;
41623;SDS011;27319;50.306;18.926;2023-09-19T15:24:01;2.67;;;1.20;;
41623;SDS011;27319;50.306;18.926;2023-09-19T15:27:03;2.20;;;1.33;;
41623;SDS011;27319;50.306;18.926;2023-09-19T15:30:04;2.70;;;1.52;;
41623;SDS011;27319;50.306;18.926;2023-09-19T15:34:05;4.60;;;2.33;;
41623;SDS011;27319;50.306;18.926;2023-09-19T15:37:07;5.25;;;2.60;;
41623;SDS011;27319;50.306;18.926;2023-09-19T15:40:09;4.38;;;1.95;;
41623;SDS011;27319;50.306;18.926;2023-09-19T15:44:11;4.80;;;2.22;;
41623;SDS011;27319;50.306;18.926;2023-09-19T15:48:11;4.63;;;2.13;;
41623;SDS011;27319;50.306;18.926;2023-09-19T15:52:11;4.10;;;1.63;;
41623;SDS011;27319;50.306;18.926;2023-09-19T15:56:12;4.45;;;2.10;;
41623;SDS011;27319;50.306;18.926;2023-09-19T16:00:13;6.28;;;3.30;;
41623;SDS011;27319;50.306;18.926;2023-09-19T16:04:13;5.70;;;2.70;;
41623;SDS011;27319;50.306;18.926;2023-09-19T16:08:14;5.40;;;2.78;;
41623;SDS011;27319;50.306;18.926;2023-09-19T16:11:24;3.88;;;2.20;;
41623;SDS011;27319;50.306;18.926;2023-09-19T16:14:26;3.63;;;2.33;;
41623;SDS011;27319;50.306;18.926;2023-09-19T16:18:26;6.38;;;2.78;;
41623;SDS011;27319;50.306;18.926;2023-09-19T16:21:27;5.22;;;2.60;;
41623;SDS011;27319;50.306;18.926;2023-09-19T16:25:28;6.78;;;2.50;;
41623;SDS011;27319;50.306;18.926;2023-09-19T16:28:31;4.97;;;2.25;;
41623;SDS011;27319;50.306;18.926;2023-09-19T16:31:34;5.85;;;2.42;;
41623;SDS011;27319;50.306;18.926;2023-09-19T16:34:43;5.60;;;2.60;;
41623;SDS011;27319;50.306;18.926;2023-09-19T16:37:44;4.20;;;2.50;;
41623;SDS011;27319;50.306;18.926;2023-09-19T16:41:44;6.90;;;2.50;;
41623;SDS011;27319;50.306;18.926;2023-09-19T16:45:54;3.15;;;2.10;;
41623;SDS011;27319;50.306;18.926;2023-09-19T16:49:55;6.75;;;2.70;;
41623;SDS011;27319;50.306;18.926;2023-09-19T16:53:56;7.13;;;2.83;;
41623;SDS011;27319;50.306;18.926;2023-09-19T16:57:58;13.50;;;2.47;;
41623;SDS011;27319;50.306;18.926;2023-09-19T17:00:59;5.35;;;2.58;;
41623;SDS011;27319;50.306;18.926;2023-09-19T17:04:00;3.53;;;2.47;;
41623;SDS011;27319;50.306;18.926;2023-09-19T17:08:02;5.18;;;3.20;;
41623;SDS011;27319;50.306;18.926;2023-09-19T17:12:03;7.32;;;3.55;;
41623;SDS011;27319;50.306;18.926;2023-09-19T17:16:14;4.90;;;3.08;;
41623;SDS011;27319;50.306;18.926;2023-09-19T17:20:05;9.63;;;3.25;;
41623;SDS011;27319;50.306;18.926;2023-09-19T17:23:07;6.82;;;3.30;;
41623;SDS011;27319;50.306;18.926;2023-09-19T17:26:09;8.68;;;4.03;;
41623;SDS011;27319;50.306;18.926;2023-09-19T17:29:10;6.25;;;3.55;;
41623;SDS011;27319;50.306;18.926;2023-09-19T17:32:12;5.55;;;3.92;;
41623;SDS011;27319;50.306;18.926;2023-09-19T17:35:13;6.68;;;3.70;;
41623;SDS011;27319;50.306;18.926;2023-09-19T17:39:14;6.07;;;3.83;;
41623;SDS011;27319;50.306;18.926;2023-09-19T17:43:15;5.80;;;3.70;;
41623;SDS011;27319;50.306;18.926;2023-09-19T17:47:15;9.57;;;4.18;;
41623;SDS011;27319;50.306;18.926;2023-09-19T17:51:16;6.00;;;3.47;;
41623;SDS011;27319;50.306;18.926;2023-09-19T17:54:57;6.72;;;3.90;;
41623;SDS011;27319;50.306;18.926;2023-09-19T17:57:58;5.72;;;4.22;;
41623;SDS011;27319;50.306;18.926;2023-09-19T18:04:12;7.43;;;5.10;;
41623;SDS011;27319;50.306;18.926;2023-09-19T18:08:13;19.25;;;11.15;;
41623;SDS011;27319;50.306;18.926;2023-09-19T18:12:14;21.20;;;14.27;;
41623;SDS011;27319;50.306;18.926;2023-09-19T18:16:14;23.48;;;15.85;;
41623;SDS011;27319;50.306;18.926;2023-09-19T18:20:15;17.58;;;11.40;;
41623;SDS011;27319;50.306;18.926;2023-09-19T18:23:16;16.67;;;11.63;;
41623;SDS011;27319;50.306;18.926;2023-09-19T18:26:20;13.10;;;9.18;;
41623;SDS011;27319;50.306;18.926;2023-09-19T18:29:32;11.45;;;8.73;;
41623;SDS011;27319;50.306;18.926;2023-09-19T18:32:34;17.67;;;10.70;;
41623;SDS011;27319;50.306;18.926;2023-09-19T18:35:34;20.42;;;13.10;;
41623;SDS011;27319;50.306;18.926;2023-09-19T18:39:35;24.58;;;13.32;;
41623;SDS011;27319;50.306;18.926;2023-09-19T18:43:37;16.67;;;10.95;;
41623;SDS011;27319;50.306;18.926;2023-09-19T18:47:37;12.77;;;7.97;;
41623;SDS011;27319;50.306;18.926;2023-09-19T18:51:37;12.02;;;7.53;;
41623;SDS011;27319;50.306;18.926;2023-09-19T18:54:39;11.80;;;7.63;;
41623;SDS011;27319;50.306;18.926;2023-09-19T18:58:41;14.93;;;7.65;;
41623;SDS011;27319;50.306;18.926;2023-09-19T19:02:41;11.77;;;7.05;;
41623;SDS011;27319;50.306;18.926;2023-09-19T19:06:42;11.88;;;7.85;;
41623;SDS011;27319;50.306;18.926;2023-09-19T19:10:43;13.80;;;6.65;;
41623;SDS011;27319;50.306;18.926;2023-09-19T19:13:46;12.77;;;8.45;;
41623;SDS011;27319;50.306;18.926;2023-09-19T19:16:47;14.63;;;8.82;;
41623;SDS011;27319;50.306;18.926;2023-09-19T19:20:55;12.52;;;7.10;;
41623;SDS011;27319;50.306;18.926;2023-09-19T19:24:49;9.48;;;7.03;;
41623;SDS011;27319;50.306;18.926;2023-09-19T19:28:49;13.68;;;6.90;;
41623;SDS011;27319;50.306;18.926;2023-09-19T19:32:50;11.60;;;7.07;;
41623;SDS011;27319;50.306;18.926;2023-09-19T19:35:51;9.90;;;6.63;;
41623;SDS011;27319;50.306;18.926;2023-09-19T19:38:52;9.07;;;5.90;;
41623;SDS011;27319;50.306;18.926;2023-09-19T19:42:53;10.30;;;6.55;;
41623;SDS011;27319;50.306;18.926;2023-09-19T19:46:53;9.93;;;7.22;;
41623;SDS011;27319;50.306;18.926;2023-09-19T19:49:54;13.55;;;7.63;;
41623;SDS011;27319;50.306;18.926;2023-09-19T19:53:55;14.77;;;7.78;;
41623;SDS011;27319;50.306;18.926;2023-09-19T19:57:56;17.15;;;9.63;;
41623;SDS011;27319;50.306;18.926;2023-09-19T20:01:56;12.80;;;8.02;;
41623;SDS011;27319;50.306;18.926;2023-09-19T20:04:59;12.63;;;8.85;;
41623;SDS011;27319;50.306;18.926;2023-09-19T20:08:59;11.25;;;7.70;;
41623;SDS011;27319;50.306;18.926;2023-09-19T20:12:01;12.00;;;7.80;;
41623;SDS011;27319;50.306;18.926;2023-09-19T20:15:02;12.40;;;7.70;;
41623;SDS011;27319;50.306;18.926;2023-09-19T20:18:07;13.95;;;8.07;;
41623;SDS011;27319;50.306;18.926;2023-09-19T20:21:46;14.23;;;9.95;;
41623;SDS011;27319;50.306;18.926;2023-09-19T20:24:47;12.73;;;7.15;;
41623;SDS011;27319;50.306;18.926;2023-09-19T20:27:48;8.07;;;6.10;;
41623;SDS011;27319;50.306;18.926;2023-09-19T20:31:29;11.63;;;6.32;;
41623;SDS011;27319;50.306;18.926;2023-09-19T20:34:32;8.07;;;5.93;;
41623;SDS011;27319;50.306;18.926;2023-09-19T20:37:33;6.38;;;5.35;;
41623;SDS011;27319;50.306;18.926;2023-09-19T20:40:41;9.50;;;6.05;;
41623;SDS011;27319;50.306;18.926;2023-09-19T20:43:43;9.60;;;5.97;;
41623;SDS011;27319;50.306;18.926;2023-09-19T20:47:44;10.05;;;6.15;;
41623;SDS011;27319;50.306;18.926;2023-09-19T20:50:45;7.65;;;5.80;;
41623;SDS011;27319;50.306;18.926;2023-09-19T20:53:46;8.88;;;5.30;;